Ludington, Michigan
Current Conditions -  °F | °C
As of 5:55 PM on Friday 28 Nov 2014 (Local Time) from KLDM Reporting Station
Overcast Overcast  
Wind Chill: 17°   Ceiling: 4400
Heat Index: 24°   Visibility: 10mi
Dew Point: 19°   Wind: 6mph
Humidity: 82%   Direction: 140°SE
Pressure: 30.04"   Gusts: NA
Location:  43.96°N, 86.45°W
Report Text: KLDM 282255Z AUTO 14005KT 10SM BKN044 OVC070 M04/M07 A3004 RMK AO2 T10451072
Loading
Personal Weather Stations






























Interactive Weather Map New forecast layout! Learn more

10-Day Weather Forecast

Advertisements
Track Severe Weather on mobile